Aviation Digital Data Service (ADDS)

Output produced by METARs form (1530 UTC 29 April 2017)
found at http://aviationweather.gov/adds/metars/
 
KLCH 291453Z 15022G32KT 7SM OVC017 27/23 A2977 RMK AO2 PK WND 16036/1421 LTG DSNT SW AND W RAB22E32 SLP087 P0000 60000 T02670233 58005 $